Ozgur Aksoy — 9HA2587 — position and weather

sailwx.info

Track history (hours):
 
Tides and Currents Weather Stations Pressure Air Temp Water Temp Dewpoint Dewpoint Depression Visibility Wind Speed Wind Dir Waves Ship Positions

Ozgur Aksoy

Last reported at 2015-Jul-27 15:31 UTC. Time now 2015-Jul-29 09:28 UTC.
Position N 32°02' E 119°57'.

Length 196 m; draft 9 m.

Type: Cargo ship. MMSI: 248950000.

Date/timePositionNaut miles runAvg speedWind from/ knotsBaromVisibWave heightAir tempDewpointWater temp
2015-Jul-27 15:31N 32°02' E 119°57'9 8.7
2015-Jul-27 14:29N 31°57' E 120°05'7 7.1
2015-Jul-27 13:33N 31°56' E 120°13'8 7.9
2015-Jul-27 12:33N 31°58' E 120°22'6 6.1
2015-Jul-27 11:33N 32°02' E 120°28'10 9.0
2015-Jul-27 10:29N 31°60' E 120°39'9 9.3
2015-Jul-27 09:33N 32°00' E 120°49'18 8.9
2015-Jul-27 07:33N 31°46' E 121°02'10 9.9
2015-Jul-27 06:33N 31°41' E 121°11'10 9.9
2015-Jul-27 05:33N 31°33' E 121°20'1010.1
2015-Jul-27 04:33N 31°27' E 121°29'7 7.3
2015-Jul-27 03:33N 31°23' E 121°36'1010.1
2015-Jul-27 02:33N 31°18' E 121°46'1110.9
2015-Jul-27 01:33N 31°15' E 121°58'1110.5
2015-Jul-27 00:33N 31°11' E 122°10'10 9.6
2015-Jul-26 23:33N 31°06' E 122°19'9 9.4
2015-Jul-26 22:33N 31°08' E 122°30'10 4.4
2015-Jul-26 20:25N 31°09' E 122°41'0 0.2
2015-Jul-26 19:28N 31°09' E 122°41'0 0.1
2015-Jul-26 18:28N 31°09' E 122°41'0 0.1
2015-Jul-26 17:28N 31°09' E 122°41'0 0.0
2015-Jul-26 16:31N 31°09' E 122°41'0 0.1
2015-Jul-26 15:31N 31°09' E 122°41'5 5.5
2015-Jul-26 14:33N 31°12' E 122°46'1111.2
2015-Jul-26 13:33N 31°23' E 122°50'1211.6
2015-Jul-26 12:33N 31°34' E 122°50'1111.1
2015-Jul-26 11:33N 31°45' E 122°50'1111.2
2015-Jul-26 10:33N 31°56' E 122°50'1211.2
2015-Jul-26 09:31N 32°08' E 122°49'  
Track history (hours):
 
Tides and Currents Weather Stations Pressure Air Temp Water Temp Dewpoint Dewpoint Depression Visibility Wind Speed Wind Dir Waves Ship Positions

Ozgur Aksoy

Last reported at 2015-Jul-27 15:31 UTC. Time now 2015-Jul-29 09:28 UTC.
Position N 32°02' E 119°57'.

Length 196 m; draft 9 m.

Type: Cargo ship. MMSI: 248950000.

Date/timePositionNaut miles runAvg speedWind from/ knotsBaromVisibWave heightAir tempDewpointWater temp
2015-Jul-27 15:31N 32°02' E 119°57'9 8.7
2015-Jul-27 14:29N 31°57' E 120°05'7 7.1
2015-Jul-27 13:33N 31°56' E 120°13'8 7.9
2015-Jul-27 12:33N 31°58' E 120°22'6 6.1
2015-Jul-27 11:33N 32°02' E 120°28'10 9.0
2015-Jul-27 10:29N 31°60' E 120°39'9 9.3
2015-Jul-27 09:33N 32°00' E 120°49'18 8.9
2015-Jul-27 07:33N 31°46' E 121°02'10 9.9
2015-Jul-27 06:33N 31°41' E 121°11'10 9.9
2015-Jul-27 05:33N 31°33' E 121°20'1010.1
2015-Jul-27 04:33N 31°27' E 121°29'7 7.3
2015-Jul-27 03:33N 31°23' E 121°36'1010.1
2015-Jul-27 02:33N 31°18' E 121°46'1110.9
2015-Jul-27 01:33N 31°15' E 121°58'1110.5
2015-Jul-27 00:33N 31°11' E 122°10'10 9.6
2015-Jul-26 23:33N 31°06' E 122°19'9 9.4
2015-Jul-26 22:33N 31°08' E 122°30'10 4.4
2015-Jul-26 20:25N 31°09' E 122°41'0 0.2
2015-Jul-26 19:28N 31°09' E 122°41'0 0.1
2015-Jul-26 18:28N 31°09' E 122°41'0 0.1
2015-Jul-26 17:28N 31°09' E 122°41'0 0.0
2015-Jul-26 16:31N 31°09' E 122°41'0 0.1
2015-Jul-26 15:31N 31°09' E 122°41'5 5.5
2015-Jul-26 14:33N 31°12' E 122°46'1111.2
2015-Jul-26 13:33N 31°23' E 122°50'1211.6
2015-Jul-26 12:33N 31°34' E 122°50'1111.1
2015-Jul-26 11:33N 31°45' E 122°50'1111.2
2015-Jul-26 10:33N 31°56' E 122°50'1211.2
2015-Jul-26 09:31N 32°08' E 122°49'  

Dump ship's entire track history